createdAt,value
2023-05-14T00:00:41.051Z,9.68
2023-05-14T00:01:46.520Z,9.66
2023-05-14T00:02:48.069Z,9.63
2023-05-14T00:03:49.812Z,9.64
2023-05-14T00:04:51.277Z,9.66
2023-05-14T00:05:52.737Z,9.69
2023-05-14T00:06:56.731Z,9.65
2023-05-14T00:07:58.242Z,9.51
2023-05-14T00:08:59.812Z,9.58
2023-05-14T00:10:03.922Z,9.55
2023-05-14T00:11:05.407Z,9.55
2023-05-14T00:12:07.046Z,9.54
2023-05-14T00:13:08.540Z,9.55
2023-05-14T00:14:09.995Z,9.56
2023-05-14T00:15:13.958Z,9.58
2023-05-14T00:16:16.039Z,9.59
2023-05-14T00:17:17.633Z,9.61
2023-05-14T00:18:19.150Z,9.57
2023-05-14T00:19:20.882Z,9.60
2023-05-14T00:20:22.574Z,9.64
2023-05-14T00:21:24.358Z,9.65
2023-05-14T00:22:26.886Z,9.64
2023-05-14T00:23:30.596Z,9.59
2023-05-14T00:24:32.022Z,9.66
2023-05-14T00:25:33.540Z,9.68
2023-05-14T00:26:35.032Z,9.68
2023-05-14T00:27:38.863Z,9.68
2023-05-14T00:28:40.514Z,9.69
2023-05-14T00:29:42.010Z,9.69
2023-05-14T00:30:43.470Z,9.67
2023-05-14T00:31:47.494Z,9.67
2023-05-14T00:32:49.183Z,9.70
2023-05-14T00:33:50.802Z,9.70
2023-05-14T00:34:52.266Z,9.72
2023-05-14T00:35:53.713Z,9.72
2023-05-14T00:36:55.214Z,9.74
2023-05-14T00:37:56.760Z,9.72
2023-05-14T00:38:58.279Z,9.71
2023-05-14T00:39:59.721Z,9.72
2023-05-14T00:41:01.293Z,9.66
2023-05-14T00:42:02.811Z,9.69
2023-05-14T00:43:04.348Z,9.67
2023-05-14T00:44:06.001Z,9.66
2023-05-14T00:45:08.164Z,9.66
2023-05-14T00:46:12.437Z,9.64
2023-05-14T00:47:14.169Z,9.61
2023-05-14T00:48:18.191Z,9.60
2023-05-14T00:49:19.910Z,9.58
2023-05-14T00:50:24.017Z,9.46
2023-05-14T00:51:28.180Z,9.50
2023-05-14T00:52:29.784Z,9.48
2023-05-14T00:53:31.546Z,9.47
2023-05-14T00:54:33.094Z,9.44
2023-05-14T00:55:36.778Z,9.38
2023-05-14T00:56:38.394Z,9.39
2023-05-14T00:57:42.771Z,9.40
2023-05-14T00:58:44.347Z,9.36
2023-05-14T00:59:48.220Z,9.34
2023-05-14T01:00:51.905Z,9.30
2023-05-14T01:01:53.440Z,9.30
2023-05-14T01:02:55.163Z,9.27
2023-05-14T01:03:58.039Z,9.24
2023-05-14T01:04:59.700Z,9.19
2023-05-14T01:06:13.471Z,9.14
2023-05-14T01:07:26.098Z,9.11
2023-05-14T01:08:32.605Z,9.08
2023-05-14T01:09:43.806Z,9.05
2023-05-14T01:10:52.771Z,9.01
2023-05-14T01:11:54.260Z,8.97
2023-05-14T01:13:05.239Z,8.94
2023-05-14T01:14:26.944Z,8.86
2023-05-14T01:15:30.880Z,8.88
2023-05-14T01:16:33.800Z,8.87
2023-05-14T01:17:39.046Z,8.81
2023-05-14T01:18:41.472Z,8.78
2023-05-14T01:19:43.853Z,8.78
2023-05-14T01:20:53.626Z,8.78
2023-05-14T01:21:55.279Z,8.77
2023-05-14T01:22:56.880Z,8.75
2023-05-14T01:23:58.380Z,8.76
2023-05-14T01:25:02.193Z,8.76
2023-05-14T01:26:06.308Z,8.78
2023-05-14T01:27:17.407Z,8.81
2023-05-14T01:28:20.320Z,8.83
2023-05-14T01:29:22.965Z,8.85
2023-05-14T01:30:38.128Z,8.88
2023-05-14T01:31:44.088Z,8.92
2023-05-14T01:32:48.061Z,8.93
2023-05-14T01:33:49.929Z,8.94
2023-05-14T01:34:52.230Z,8.96
2023-05-14T01:35:58.466Z,8.95
2023-05-14T01:37:00.696Z,8.96
2023-05-14T01:38:04.856Z,8.97
2023-05-14T01:39:09.698Z,8.98
2023-05-14T01:40:14.472Z,8.98
2023-05-14T01:41:16.478Z,9.00
2023-05-14T01:42:18.186Z,9.01
2023-05-14T01:43:20.442Z,9.05
2023-05-14T01:44:22.226Z,9.06
2023-05-14T01:45:24.220Z,9.07
2023-05-14T01:46:30.887Z,9.08
2023-05-14T01:47:32.504Z,9.11
2023-05-14T01:48:34.047Z,9.11
2023-05-14T01:49:37.193Z,9.05
2023-05-14T01:50:38.758Z,9.06
2023-05-14T01:51:40.380Z,9.05
2023-05-14T01:52:42.371Z,9.03
2023-05-14T01:53:45.327Z,9.02
2023-05-14T01:54:49.192Z,9.04
2023-05-14T01:55:52.799Z,9.05
2023-05-14T01:56:56.933Z,9.07
2023-05-14T01:57:58.680Z,9.07
2023-05-14T01:59:00.278Z,9.08
2023-05-14T02:00:02.332Z,9.06
2023-05-14T02:01:04.261Z,9.06
2023-05-14T02:02:07.993Z,9.07
2023-05-14T02:03:16.382Z,9.08
2023-05-14T02:04:21.251Z,9.11
2023-05-14T02:05:23.843Z,9.08
2023-05-14T02:06:29.112Z,9.08
2023-05-14T02:07:30.796Z,9.11
2023-05-14T02:08:32.373Z,9.12
2023-05-14T02:09:34.184Z,9.14
2023-05-14T02:10:35.685Z,9.13
2023-05-14T02:11:37.168Z,9.15
2023-05-14T02:12:41.192Z,9.15
2023-05-14T02:13:42.787Z,9.15
2023-05-14T02:14:46.530Z,9.15
2023-05-14T02:15:48.028Z,9.15
2023-05-14T02:16:50.972Z,9.17
2023-05-14T02:17:52.498Z,9.18
2023-05-14T02:18:54.222Z,9.19
2023-05-14T02:19:55.766Z,9.19
2023-05-14T02:20:57.894Z,9.21
2023-05-14T02:22:00.355Z,9.20
2023-05-14T02:23:02.116Z,9.20
2023-05-14T02:24:03.928Z,9.19
2023-05-14T02:25:05.664Z,9.20
2023-05-14T02:26:08.442Z,9.21
2023-05-14T02:27:09.920Z,9.22
2023-05-14T02:28:11.556Z,9.21
2023-05-14T02:29:13.200Z,9.23
2023-05-14T02:30:14.768Z,9.24
2023-05-14T02:31:19.032Z,9.25
2023-05-14T02:32:20.644Z,9.26
2023-05-14T02:33:22.216Z,9.28
2023-05-14T02:34:23.983Z,9.27
2023-05-14T02:35:25.553Z,9.30
2023-05-14T02:36:26.976Z,9.31
2023-05-14T02:37:28.652Z,9.32
2023-05-14T02:38:30.179Z,9.32
2023-05-14T02:39:31.686Z,9.31
2023-05-14T02:40:36.593Z,9.30
2023-05-14T02:41:38.059Z,9.30
2023-05-14T02:42:40.400Z,9.32
2023-05-14T02:43:41.912Z,9.31
2023-05-14T02:44:43.429Z,9.32
2023-05-14T02:45:45.762Z,9.33
2023-05-14T02:46:47.538Z,9.30
2023-05-14T02:47:49.468Z,9.29
2023-05-14T02:48:54.088Z,9.30
2023-05-14T02:49:55.715Z,9.29
2023-05-14T02:50:57.198Z,9.31
2023-05-14T02:52:00.823Z,9.29
2023-05-14T02:53:02.430Z,9.29
2023-05-14T02:54:03.972Z,9.31
2023-05-14T02:55:08.199Z,9.33
2023-05-14T02:56:09.853Z,9.33
2023-05-14T02:57:11.329Z,9.34
2023-05-14T02:58:15.338Z,9.33
2023-05-14T02:59:16.937Z,9.34
2023-05-14T03:00:19.164Z,9.34
2023-05-14T03:01:23.414Z,9.35
2023-05-14T03:02:25.361Z,9.41
2023-05-14T03:03:28.975Z,9.42
2023-05-14T03:04:31.178Z,9.45
2023-05-14T03:05:33.224Z,9.44
2023-05-14T03:06:34.813Z,9.45
2023-05-14T03:07:38.740Z,9.47
2023-05-14T03:08:43.261Z,9.47
2023-05-14T03:09:47.103Z,9.48
2023-05-14T03:10:48.627Z,9.51
2023-05-14T03:11:52.752Z,9.50
2023-05-14T03:12:54.244Z,9.49
2023-05-14T03:13:55.707Z,9.45
2023-05-14T03:14:57.288Z,9.46
2023-05-14T03:15:58.848Z,9.44
2023-05-14T03:17:00.454Z,9.42
2023-05-14T03:18:02.269Z,9.42
2023-05-14T03:19:04.094Z,9.40
2023-05-14T03:20:06.009Z,9.41
2023-05-14T03:21:10.152Z,9.37
2023-05-14T03:22:11.705Z,9.39
2023-05-14T03:23:13.261Z,9.39
2023-05-14T03:24:14.829Z,9.41
2023-05-14T03:25:16.403Z,9.42
2023-05-14T03:26:17.946Z,9.45
2023-05-14T03:27:22.008Z,9.45
2023-05-14T03:28:23.560Z,9.46
2023-05-14T03:29:25.054Z,9.47
2023-05-14T03:30:26.851Z,9.48
2023-05-14T03:31:28.531Z,9.49
2023-05-14T03:32:31.610Z,9.44
2023-05-14T03:33:33.801Z,9.44
2023-05-14T03:34:35.415Z,9.46
2023-05-14T03:35:36.925Z,9.46
2023-05-14T03:36:40.830Z,9.48
2023-05-14T03:37:42.352Z,9.48
2023-05-14T03:38:43.854Z,9.50
2023-05-14T03:39:45.470Z,9.50
2023-05-14T03:40:49.906Z,9.50
2023-05-14T03:41:51.634Z,9.53
2023-05-14T03:42:53.331Z,9.55
2023-05-14T03:43:54.860Z,9.55
2023-05-14T03:44:56.290Z,9.53
2023-05-14T03:45:58.213Z,9.50
2023-05-14T03:47:00.049Z,9.50
2023-05-14T03:48:01.659Z,9.50
2023-05-14T03:49:04.112Z,9.51
2023-05-14T03:50:06.296Z,9.52
2023-05-14T03:51:07.732Z,9.54
2023-05-14T03:52:10.823Z,9.58
2023-05-14T03:53:12.453Z,9.60
2023-05-14T03:54:13.964Z,9.61
2023-05-14T03:55:15.622Z,9.61
2023-05-14T03:56:17.548Z,9.61
2023-05-14T03:57:19.121Z,9.60
2023-05-14T03:58:20.648Z,9.62
2023-05-14T03:59:22.237Z,9.61
2023-05-14T04:00:23.837Z,9.56
2023-05-14T04:01:27.390Z,9.52
2023-05-14T04:02:29.017Z,9.52
2023-05-14T04:03:32.925Z,9.50
2023-05-14T04:04:34.729Z,9.50
2023-05-14T04:05:37.177Z,9.49
2023-05-14T04:06:38.953Z,9.51
2023-05-14T04:07:40.705Z,9.52
2023-05-14T04:08:42.202Z,9.51
2023-05-14T04:09:43.926Z,9.52
2023-05-14T04:10:46.540Z,9.54
2023-05-14T04:11:48.013Z,9.54
2023-05-14T04:12:52.194Z,9.50
2023-05-14T04:13:54.108Z,9.53
2023-05-14T04:14:56.629Z,9.50
2023-05-14T04:15:58.156Z,9.50
2023-05-14T04:17:00.377Z,9.46
2023-05-14T04:18:02.126Z,9.44
2023-05-14T04:19:05.640Z,9.44
2023-05-14T04:20:07.592Z,9.44
2023-05-14T04:21:09.117Z,9.42
2023-05-14T04:22:10.728Z,9.43
2023-05-14T04:23:12.320Z,9.42
2023-05-14T04:24:13.819Z,9.46
2023-05-14T04:25:15.437Z,9.45
2023-05-14T04:26:17.062Z,9.49
2023-05-14T04:27:21.784Z,9.51
2023-05-14T04:28:23.398Z,9.51
2023-05-14T04:29:27.440Z,9.48
2023-05-14T04:31:28.739Z,9.53
2023-05-14T04:32:32.350Z,9.55
2023-05-14T04:33:33.828Z,9.49
2023-05-14T04:34:35.551Z,9.50
2023-05-14T04:35:37.270Z,9.52
2023-05-14T04:36:38.719Z,9.55
2023-05-14T04:37:40.561Z,9.56
2023-05-14T04:38:42.078Z,9.58
2023-05-14T04:39:45.790Z,9.61
2023-05-14T04:40:49.749Z,9.62
2023-05-14T04:41:53.652Z,9.61
2023-05-14T04:42:55.247Z,9.60
2023-05-14T04:43:57.072Z,9.60
2023-05-14T04:44:58.706Z,9.60
2023-05-14T04:46:00.687Z,9.63
2023-05-14T04:47:02.797Z,9.62
2023-05-14T04:48:04.767Z,9.65
2023-05-14T04:49:06.272Z,9.64
2023-05-14T04:50:09.673Z,9.63
2023-05-14T04:51:11.300Z,9.62
2023-05-14T04:52:15.209Z,9.58
2023-05-14T04:53:16.738Z,9.60
2023-05-14T04:54:18.362Z,9.56
2023-05-14T04:55:19.840Z,9.52
2023-05-14T04:56:21.589Z,9.56
2023-05-14T04:57:23.273Z,9.55
2023-05-14T04:58:29.154Z,9.54
2023-05-14T04:59:33.070Z,9.56
2023-05-14T05:00:34.823Z,9.59
2023-05-14T05:01:36.315Z,9.62
2023-05-14T05:02:37.869Z,9.65
2023-05-14T05:03:39.475Z,9.68
2023-05-14T05:04:41.019Z,9.70
2023-05-14T05:05:44.605Z,9.70
2023-05-14T05:06:46.157Z,9.74
2023-05-14T05:07:49.993Z,9.76
2023-05-14T05:08:51.578Z,9.74
2023-05-14T05:09:53.158Z,9.73
2023-05-14T05:10:54.586Z,9.72
2023-05-14T05:11:58.265Z,9.73
2023-05-14T05:13:00.562Z,9.75
2023-05-14T05:14:02.117Z,9.77
2023-05-14T05:15:03.783Z,9.72
2023-05-14T05:16:05.632Z,9.73
2023-05-14T05:17:09.371Z,9.74
2023-05-14T05:18:10.862Z,9.77
2023-05-14T05:19:14.576Z,9.79
2023-05-14T05:20:18.650Z,9.82
2023-05-14T05:21:20.220Z,9.82
2023-05-14T05:22:21.844Z,9.74
2023-05-14T05:23:25.453Z,9.78
2023-05-14T05:24:26.968Z,9.80
2023-05-14T05:25:28.435Z,9.80
2023-05-14T05:26:29.883Z,9.78
2023-05-14T05:27:31.470Z,9.80
2023-05-14T05:28:32.965Z,9.77
2023-05-14T05:29:34.842Z,9.76
2023-05-14T05:30:36.460Z,9.80
2023-05-14T05:31:38.122Z,9.85
2023-05-14T05:32:39.756Z,9.88
2023-05-14T05:33:41.331Z,9.89
2023-05-14T05:34:45.681Z,9.95
2023-05-14T05:35:48.280Z,10.00
2023-05-14T05:36:52.020Z,10.06
2023-05-14T05:37:53.608Z,10.07
2023-05-14T05:38:55.404Z,10.09
2023-05-14T05:39:56.910Z,10.15
2023-05-14T05:41:00.662Z,10.17
2023-05-14T05:42:02.594Z,10.20
2023-05-14T05:43:04.136Z,10.24
2023-05-14T05:44:05.792Z,10.28
2023-05-14T05:45:09.993Z,10.29
2023-05-14T05:46:12.224Z,10.36
2023-05-14T05:47:13.772Z,10.41
2023-05-14T05:48:17.537Z,10.48
2023-05-14T05:49:18.968Z,10.50
2023-05-14T05:50:20.863Z,10.53
2023-05-14T05:51:22.466Z,10.58
2023-05-14T05:52:24.054Z,10.61
2023-05-14T05:53:25.724Z,10.61
2023-05-14T05:54:27.208Z,10.62
2023-05-14T05:55:28.988Z,10.70
2023-05-14T05:56:30.775Z,10.72
2023-05-14T05:57:32.267Z,10.74
2023-05-14T05:58:33.731Z,10.74
2023-05-14T05:59:35.248Z,10.81
2023-05-14T06:00:36.933Z,10.87
2023-05-14T06:01:43.432Z,10.85
2023-05-14T06:02:47.287Z,10.85
2023-05-14T06:03:48.928Z,10.87
2023-05-14T06:04:53.258Z,10.92
2023-05-14T06:05:55.017Z,10.92
2023-05-14T06:06:56.695Z,10.96
2023-05-14T06:07:58.249Z,10.99
2023-05-14T06:09:02.496Z,11.04
2023-05-14T06:10:06.876Z,11.06
2023-05-14T06:11:08.378Z,11.11
2023-05-14T06:12:10.061Z,11.14
2023-05-14T06:13:13.900Z,11.17
2023-05-14T06:14:20.830Z,11.18
2023-05-14T06:15:24.893Z,11.22
2023-05-14T06:16:28.746Z,11.20
2023-05-14T06:17:32.711Z,11.28
2023-05-14T06:18:34.479Z,11.27
2023-05-14T06:19:36.048Z,11.23
2023-05-14T06:20:41.362Z,11.26
2023-05-14T06:21:45.368Z,11.34
2023-05-14T06:22:46.873Z,11.19
2023-05-14T06:23:48.453Z,11.13
2023-05-14T06:24:52.177Z,11.06
2023-05-14T06:25:53.708Z,11.08
2023-05-14T06:26:55.413Z,11.07
2023-05-14T06:28:01.227Z,11.11
2023-05-14T06:29:02.761Z,11.20
2023-05-14T06:30:04.456Z,11.28
2023-05-14T06:31:09.151Z,11.34
2023-05-14T06:32:15.628Z,11.40
2023-05-14T06:33:19.317Z,11.32
2023-05-14T06:34:22.092Z,11.42
2023-05-14T06:35:26.607Z,11.43
2023-05-14T06:36:28.139Z,11.13
2023-05-14T06:37:29.967Z,11.10
2023-05-14T06:38:31.637Z,10.90
2023-05-14T06:39:33.155Z,11.10
2023-05-14T06:40:34.779Z,11.19
2023-05-14T06:41:36.282Z,11.27
2023-05-14T06:42:38.042Z,11.29
2023-05-14T06:43:42.103Z,11.39
2023-05-14T06:44:44.286Z,11.47
2023-05-14T06:45:48.454Z,11.58
2023-05-14T06:46:50.026Z,11.63
2023-05-14T06:47:51.656Z,11.69
2023-05-14T06:48:53.309Z,11.75
2023-05-14T06:49:58.643Z,11.85
2023-05-14T06:51:00.312Z,11.87
2023-05-14T06:52:01.889Z,11.85
2023-05-14T06:53:05.726Z,11.94
2023-05-14T06:54:10.115Z,11.98
2023-05-14T06:55:11.628Z,12.07
2023-05-14T06:56:15.315Z,12.05
2023-05-14T06:57:16.792Z,12.08
2023-05-14T06:58:18.348Z,11.89
2023-05-14T06:59:19.932Z,11.92
2023-05-14T07:00:21.983Z,11.97
2023-05-14T07:01:23.963Z,11.98
2023-05-14T07:02:25.584Z,11.93
2023-05-14T07:03:27.252Z,12.10
2023-05-14T07:04:28.866Z,12.19
2023-05-14T07:05:30.606Z,12.21
2023-05-14T07:06:32.557Z,12.24
2023-05-14T07:07:34.010Z,12.23
2023-05-14T07:08:36.153Z,12.23
2023-05-14T07:09:37.683Z,12.24
2023-05-14T07:10:39.264Z,12.36
2023-05-14T07:11:40.840Z,12.28
2023-05-14T07:12:42.451Z,12.21
2023-05-14T07:13:44.035Z,12.31
2023-05-14T07:14:46.549Z,12.34
2023-05-14T07:15:48.054Z,12.38
2023-05-14T07:16:49.601Z,12.22
2023-05-14T07:17:51.323Z,12.16
2023-05-14T07:18:52.982Z,12.14
2023-05-14T07:19:55.942Z,12.24
2023-05-14T07:20:57.566Z,12.18
2023-05-14T07:21:59.107Z,12.26
2023-05-14T07:23:00.719Z,12.10
2023-05-14T07:24:02.352Z,12.37
2023-05-14T07:25:03.917Z,12.49
2023-05-14T07:26:05.948Z,12.56
2023-05-14T07:27:10.175Z,12.50
2023-05-14T07:28:11.613Z,12.46
2023-05-14T07:29:13.155Z,12.50
2023-05-14T07:30:14.872Z,12.53
2023-05-14T07:31:19.050Z,12.67
2023-05-14T07:32:20.625Z,12.65
2023-05-14T07:33:22.493Z,12.65
2023-05-14T07:34:26.452Z,12.67
2023-05-14T07:35:27.962Z,12.64
2023-05-14T07:36:29.557Z,12.70
2023-05-14T07:37:31.058Z,12.41
2023-05-14T07:38:32.709Z,12.40
2023-05-14T07:39:37.589Z,12.49
2023-05-14T07:40:39.154Z,12.53
2023-05-14T07:41:40.700Z,12.51
2023-05-14T07:42:42.266Z,12.59
2023-05-14T07:43:43.801Z,12.52
2023-05-14T07:44:46.082Z,12.46
2023-05-14T07:45:47.601Z,12.55
2023-05-14T07:46:53.808Z,12.53
2023-05-14T07:47:55.437Z,12.53
2023-05-14T07:48:57.014Z,12.49
2023-05-14T07:49:58.781Z,12.30
2023-05-14T07:51:02.358Z,12.28
2023-05-14T07:52:03.980Z,12.20
2023-05-14T07:53:05.458Z,12.13
2023-05-14T07:54:07.032Z,12.12
2023-05-14T07:55:08.788Z,12.17
2023-05-14T07:56:10.546Z,12.18
2023-05-14T07:57:14.383Z,12.16
2023-05-14T07:58:18.263Z,12.09
2023-05-14T07:59:21.902Z,11.98
2023-05-14T08:00:23.783Z,11.94
2023-05-14T08:01:26.338Z,11.91
2023-05-14T08:02:28.570Z,11.88
2023-05-14T08:03:35.178Z,11.84
2023-05-14T08:04:36.965Z,11.80
2023-05-14T08:05:41.712Z,11.79
2023-05-14T08:06:43.305Z,11.81
2023-05-14T08:07:44.930Z,11.83
2023-05-14T08:08:46.734Z,11.83
2023-05-14T08:09:48.186Z,11.70
2023-05-14T08:10:50.924Z,11.60
2023-05-14T08:11:52.507Z,11.66
2023-05-14T08:12:53.949Z,11.63
2023-05-14T08:13:55.670Z,11.67
2023-05-14T08:14:59.646Z,11.71
2023-05-14T08:16:01.265Z,11.70
2023-05-14T08:17:03.437Z,11.70
2023-05-14T08:18:04.984Z,11.81
2023-05-14T08:19:06.630Z,11.88
2023-05-14T08:20:09.026Z,11.93
2023-05-14T08:21:10.653Z,12.03
2023-05-14T08:22:12.221Z,12.02
2023-05-14T08:23:13.799Z,12.06
2023-05-14T08:24:15.237Z,12.07
2023-05-14T08:25:18.806Z,12.10
2023-05-14T08:26:21.723Z,12.08
2023-05-14T08:27:23.257Z,12.14
2023-05-14T08:28:24.704Z,12.19
2023-05-14T08:29:26.254Z,12.30
2023-05-14T08:30:28.126Z,12.30
2023-05-14T08:31:30.018Z,12.33
2023-05-14T08:33:28.560Z,12.47
2023-05-14T08:34:32.501Z,12.50
2023-05-14T08:35:34.131Z,12.31
2023-05-14T08:36:35.806Z,12.43
2023-05-14T08:37:37.363Z,12.26
2023-05-14T08:38:38.957Z,12.37
2023-05-14T08:39:42.552Z,12.41
2023-05-14T08:40:51.232Z,12.46
2023-05-14T08:41:53.808Z,12.50
2023-05-14T08:43:00.647Z,12.54
2023-05-14T08:44:09.275Z,12.54
2023-05-14T08:45:18.107Z,12.56
2023-05-14T08:46:24.318Z,12.61
2023-05-14T08:47:26.289Z,12.66
2023-05-14T08:48:33.408Z,12.73
2023-05-14T08:49:42.736Z,12.76
2023-05-14T08:50:44.563Z,12.78
2023-05-14T08:51:49.538Z,12.87
2023-05-14T08:52:52.030Z,12.89
2023-05-14T08:54:02.184Z,12.93
2023-05-14T08:55:05.635Z,12.99
2023-05-14T08:56:08.495Z,13.05
2023-05-14T08:57:13.098Z,13.15
2023-05-14T08:58:17.810Z,13.28
2023-05-14T08:59:20.103Z,13.37
2023-05-14T09:00:23.080Z,13.41
2023-05-14T09:01:25.732Z,13.51
2023-05-14T09:02:33.741Z,13.61
2023-05-14T09:03:36.954Z,13.74
2023-05-14T09:04:39.754Z,13.75
2023-05-14T09:05:41.595Z,13.63
2023-05-14T09:06:46.161Z,13.72
2023-05-14T09:07:48.174Z,13.69
2023-05-14T09:08:49.973Z,13.73
2023-05-14T09:09:52.647Z,13.72
2023-05-14T09:10:59.414Z,13.72
2023-05-14T09:12:01.632Z,13.87
2023-05-14T09:13:03.844Z,13.86
2023-05-14T09:14:05.497Z,13.88
2023-05-14T09:15:07.346Z,13.86
2023-05-14T09:16:08.963Z,13.92
2023-05-14T09:17:12.468Z,13.32
2023-05-14T09:18:14.140Z,13.69
2023-05-14T09:19:18.862Z,13.58
2023-05-14T09:20:21.419Z,13.76
2023-05-14T09:21:23.397Z,13.73
2023-05-14T09:22:25.155Z,13.81
2023-05-14T09:23:26.744Z,13.67
2023-05-14T09:24:31.605Z,13.78
2023-05-14T09:25:33.598Z,13.78
2023-05-14T09:26:35.665Z,13.81
2023-05-14T09:27:37.972Z,13.84
2023-05-14T09:28:41.660Z,13.93
2023-05-14T09:29:47.420Z,13.84
2023-05-14T09:30:52.200Z,13.86
2023-05-14T09:31:56.960Z,13.88
2023-05-14T09:32:58.694Z,13.83
2023-05-14T09:34:00.635Z,13.62
2023-05-14T09:35:10.383Z,13.69
2023-05-14T09:36:14.242Z,13.75
2023-05-14T09:37:15.770Z,13.83
2023-05-14T09:38:17.377Z,13.85
2023-05-14T09:39:19.571Z,13.68
2023-05-14T09:40:25.619Z,13.83
2023-05-14T09:41:27.360Z,13.82
2023-05-14T09:42:28.901Z,13.39
2023-05-14T09:43:30.524Z,13.57
2023-05-14T09:44:32.262Z,13.56
2023-05-14T09:45:35.537Z,13.41
2023-05-14T09:46:37.314Z,13.43
2023-05-14T09:47:44.983Z,13.53
2023-05-14T09:48:47.075Z,13.59
2023-05-14T09:49:48.766Z,13.57
2023-05-14T09:50:51.582Z,13.75
2023-05-14T09:51:53.425Z,13.79
2023-05-14T09:52:55.551Z,13.70
2023-05-14T09:54:00.515Z,13.93
2023-05-14T09:55:02.569Z,14.00
2023-05-14T09:56:04.440Z,14.08
2023-05-14T09:57:06.187Z,14.20
2023-05-14T09:58:07.752Z,14.06
2023-05-14T09:59:11.600Z,14.28
2023-05-14T10:00:16.144Z,14.40
2023-05-14T10:01:20.201Z,14.50
2023-05-14T10:02:27.404Z,14.54
2023-05-14T10:03:30.323Z,14.55
2023-05-14T10:04:34.216Z,14.71
2023-05-14T10:05:37.187Z,14.74
2023-05-14T10:06:42.038Z,14.83
2023-05-14T10:07:49.457Z,14.89
2023-05-14T10:08:55.144Z,14.95
2023-05-14T10:10:01.931Z,14.98
2023-05-14T10:11:10.536Z,15.03
2023-05-14T10:12:16.559Z,15.11
2023-05-14T10:13:24.484Z,15.13
2023-05-14T10:14:49.739Z,15.02
2023-05-14T10:16:06.119Z,14.99
2023-05-14T10:17:18.402Z,15.08
2023-05-14T10:18:23.508Z,15.14
2023-05-14T10:19:33.216Z,15.11
2023-05-14T10:20:36.704Z,15.16
2023-05-14T10:21:41.124Z,15.22
2023-05-14T10:22:42.886Z,15.24
2023-05-14T10:23:47.314Z,15.24
2023-05-14T10:24:52.411Z,15.02
2023-05-14T10:25:54.099Z,14.95
2023-05-14T10:26:56.517Z,14.92
2023-05-14T10:27:58.526Z,15.16
2023-05-14T10:29:00.340Z,15.34
2023-05-14T10:30:10.111Z,15.46
2023-05-14T10:31:13.148Z,15.59
2023-05-14T10:32:16.410Z,15.43
2023-05-14T10:33:18.882Z,15.43
2023-05-14T10:34:41.163Z,15.41
2023-05-14T10:35:54.965Z,15.44
2023-05-14T10:37:02.373Z,15.58
2023-05-14T10:38:08.549Z,15.66
2023-05-14T10:39:10.140Z,15.82
2023-05-14T10:40:12.471Z,15.73
2023-05-14T10:41:17.690Z,15.97
2023-05-14T10:42:24.254Z,16.12
2023-05-14T10:43:29.303Z,16.26
2023-05-14T10:44:35.109Z,16.30
2023-05-14T10:45:39.926Z,16.46
2023-05-14T10:46:41.632Z,16.62
2023-05-14T10:47:44.359Z,16.51
2023-05-14T10:48:46.190Z,16.72
2023-05-14T10:49:50.512Z,16.81
2023-05-14T10:50:55.520Z,16.76
2023-05-14T10:51:57.265Z,16.70
2023-05-14T10:52:58.953Z,16.58
2023-05-14T10:54:01.712Z,16.48
2023-05-14T10:55:11.882Z,16.27
2023-05-14T10:56:14.544Z,16.11
2023-05-14T10:57:17.923Z,16.17
2023-05-14T10:58:22.124Z,16.03
2023-05-14T10:59:27.615Z,16.03
2023-05-14T11:00:29.335Z,15.95
2023-05-14T11:01:31.862Z,15.67
2023-05-14T11:02:39.754Z,15.76
2023-05-14T11:03:45.291Z,15.74
2023-05-14T11:04:59.319Z,15.53
2023-05-14T11:06:05.690Z,15.58
2023-05-14T11:07:08.064Z,15.57
2023-05-14T11:08:15.773Z,15.53
2023-05-14T11:09:17.734Z,15.45
2023-05-14T11:10:21.969Z,15.42
2023-05-14T11:11:26.103Z,15.37
2023-05-14T11:12:28.961Z,15.28
2023-05-14T11:13:30.772Z,15.31
2023-05-14T11:14:34.769Z,15.24
2023-05-14T11:15:37.224Z,15.13
2023-05-14T11:16:39.285Z,15.28
2023-05-14T11:17:42.429Z,15.34
2023-05-14T11:18:44.086Z,15.32
2023-05-14T11:19:45.939Z,15.29
2023-05-14T11:20:47.739Z,15.32
2023-05-14T11:21:49.567Z,15.34
2023-05-14T11:22:54.417Z,15.13
2023-05-14T11:23:56.820Z,15.32
2023-05-14T11:25:00.653Z,15.28
2023-05-14T11:26:04.946Z,15.18
2023-05-14T11:27:10.508Z,15.06
2023-05-14T11:28:12.250Z,15.18
2023-05-14T11:29:13.797Z,15.06
2023-05-14T11:30:17.586Z,15.28
2023-05-14T11:31:19.425Z,15.35
2023-05-14T11:32:21.238Z,15.24
2023-05-14T11:33:27.812Z,15.35
2023-05-14T11:34:29.763Z,15.37
2023-05-14T11:35:31.632Z,15.49
2023-05-14T11:36:33.255Z,15.52
2023-05-14T11:37:34.873Z,15.38
2023-05-14T11:38:49.151Z,15.44
2023-05-14T11:39:52.410Z,15.43
2023-05-14T11:40:58.541Z,15.42
2023-05-14T11:42:03.666Z,15.40
2023-05-14T11:43:05.464Z,15.48
2023-05-14T11:44:09.061Z,15.50
2023-05-14T11:45:24.310Z,15.54
2023-05-14T11:46:26.242Z,15.57
2023-05-14T11:47:29.561Z,15.56
2023-05-14T11:48:32.084Z,15.56
2023-05-14T11:50:37.702Z,15.68
2023-05-14T11:51:41.670Z,15.56
2023-05-14T11:52:43.704Z,15.73
2023-05-14T11:53:48.480Z,15.79
2023-05-14T11:54:52.270Z,15.82
2023-05-14T11:55:55.126Z,15.80
2023-05-14T11:57:00.112Z,15.79
2023-05-14T11:58:02.175Z,15.86
2023-05-14T11:59:03.798Z,15.96
2023-05-14T12:00:08.132Z,15.82
2023-05-14T12:01:13.548Z,15.84
2023-05-14T12:02:18.206Z,15.91
2023-05-14T12:03:26.298Z,15.97
2023-05-14T12:04:29.443Z,15.99
2023-05-14T12:05:31.261Z,16.04
2023-05-14T12:06:35.352Z,16.01
2023-05-14T12:07:37.183Z,16.00
2023-05-14T12:08:38.834Z,16.10
2023-05-14T12:09:43.638Z,16.03
2023-05-14T12:10:49.383Z,16.08
2023-05-14T12:11:52.356Z,16.16
2023-05-14T12:12:54.446Z,16.13
2023-05-14T12:13:56.020Z,16.16
2023-05-14T12:14:59.987Z,16.10
2023-05-14T12:16:02.653Z,16.12
2023-05-14T12:17:11.853Z,16.20
2023-05-14T12:18:23.927Z,16.28
2023-05-14T12:19:26.652Z,16.29
2023-05-14T12:20:29.621Z,16.31
2023-05-14T12:21:31.971Z,16.38
2023-05-14T12:22:36.398Z,16.50
2023-05-14T12:23:39.108Z,16.27
2023-05-14T12:24:41.221Z,16.40
2023-05-14T12:25:52.772Z,16.36
2023-05-14T12:26:55.526Z,16.50
2023-05-14T12:27:57.168Z,16.53
2023-05-14T12:29:03.426Z,16.22
2023-05-14T12:30:20.564Z,16.36
2023-05-14T12:31:30.421Z,16.47
2023-05-14T12:32:33.386Z,16.53
2023-05-14T12:33:37.412Z,16.52
2023-05-14T12:34:39.248Z,16.60
2023-05-14T12:35:41.613Z,16.69
2023-05-14T12:36:44.146Z,16.74
2023-05-14T12:37:46.037Z,16.70
2023-05-14T12:38:47.943Z,16.76
2023-05-14T12:39:49.764Z,16.71
2023-05-14T12:40:51.298Z,16.80
2023-05-14T12:41:52.939Z,16.86
2023-05-14T12:42:56.633Z,16.84
2023-05-14T12:43:59.164Z,16.85
2023-05-14T12:45:05.558Z,16.89
2023-05-14T12:46:07.191Z,16.88
2023-05-14T12:47:08.952Z,16.63
2023-05-14T12:48:10.770Z,16.81
2023-05-14T12:49:12.493Z,16.95
2023-05-14T12:50:14.071Z,16.93
2023-05-14T12:51:15.711Z,16.84
2023-05-14T12:52:29.492Z,17.01
2023-05-14T12:53:38.915Z,17.14
2023-05-14T12:54:43.457Z,17.14
2023-05-14T12:55:49.654Z,17.23
2023-05-14T12:56:51.304Z,17.21
2023-05-14T12:57:53.438Z,17.11
2023-05-14T12:58:56.389Z,17.11
2023-05-14T12:59:58.124Z,17.12
2023-05-14T13:00:59.784Z,16.91
2023-05-14T13:02:03.668Z,17.04
2023-05-14T13:03:05.411Z,17.04
2023-05-14T13:04:07.920Z,17.08
2023-05-14T13:05:09.634Z,17.05
2023-05-14T13:06:11.201Z,16.82
2023-05-14T13:07:13.232Z,16.90
2023-05-14T13:08:17.816Z,16.90
2023-05-14T13:09:19.418Z,16.99
2023-05-14T13:10:21.134Z,17.04
2023-05-14T13:11:22.734Z,16.96
2023-05-14T13:12:24.391Z,17.09
2023-05-14T13:13:26.260Z,17.08
2023-05-14T13:14:27.817Z,17.09
2023-05-14T13:15:31.505Z,17.11
2023-05-14T13:16:33.264Z,17.18
2023-05-14T13:17:35.822Z,17.00
2023-05-14T13:18:37.397Z,17.03
2023-05-14T13:19:39.084Z,17.05
2023-05-14T13:20:43.097Z,17.05
2023-05-14T13:21:49.793Z,17.09
2023-05-14T13:22:51.436Z,17.04
2023-05-14T13:23:55.612Z,16.82
2023-05-14T13:24:57.213Z,16.90
2023-05-14T13:26:01.060Z,16.85
2023-05-14T13:27:02.705Z,16.94
2023-05-14T13:28:04.540Z,16.81
2023-05-14T13:29:06.768Z,16.87
2023-05-14T13:30:08.820Z,16.83
2023-05-14T13:31:12.734Z,16.83
2023-05-14T13:32:14.361Z,16.90
2023-05-14T13:33:20.691Z,16.90
2023-05-14T13:34:22.342Z,17.09
2023-05-14T13:35:24.090Z,17.11
2023-05-14T13:36:28.985Z,17.30
2023-05-14T13:37:33.078Z,17.35
2023-05-14T13:38:34.950Z,17.44
2023-05-14T13:39:36.592Z,17.25
2023-05-14T13:40:38.129Z,17.11
2023-05-14T13:41:42.401Z,17.33
2023-05-14T13:42:43.967Z,17.45
2023-05-14T13:43:47.953Z,17.48
2023-05-14T13:44:49.623Z,17.33
2023-05-14T13:45:51.324Z,17.53
2023-05-14T13:46:52.887Z,17.56